Time;durP1;ratioP1;P1;durP2;ratioP2;P2;SDS_P1;SDS_P2;PMS_P1;PMS_P2;Temp;Humidity;BMP_temperature;BMP_pressure;BME280_temperature;BME280_humidity;BME280_pressure;Samples;Min_cycle;Max_cycle;Signal;HPM_P1;HPM_P2
2020/12/19 00:02:06;;;;;;;62.00;37.83;;;;;;;6.65;65.99;100858.09;5097677;28;20024;-76
2020/12/19 00:04:32;;;;;;;58.87;35.63;;;;;;;6.62;66.62;100854.88;5097466;28;20024;-77
2020/12/19 00:06:58;;;;;;;66.28;40.20;;;;;;;6.88;66.36;100895.69;5097337;28;20036;-77
2020/12/19 00:09:23;;;;;;;69.60;39.83;;;;;;;6.18;66.42;100780.50;5097011;28;20044;-76
2020/12/19 00:11:50;;;;;;;68.78;40.53;;;;;;;6.86;66.13;100891.50;5097304;28;20058;-77
2020/12/19 00:14:18;;;;;;;58.28;35.75;;;;;;;6.94;66.13;100904.88;5097008;28;20027;-77
2020/12/19 00:16:43;;;;;;;58.90;34.50;;;;;;;6.68;66.19;100864.88;5097156;28;20023;-78
2020/12/19 00:19:08;;;;;;;58.33;35.17;;;;;;;6.77;66.80;100872.06;5097017;28;20016;-78
2020/12/19 00:21:35;;;;;;;55.50;32.03;;;;;;;6.56;66.24;100837.00;5079172;28;20085;-77
2020/12/19 00:24:02;;;;;;;53.73;31.93;;;;;;;6.65;66.65;100852.84;5096988;28;20408;-77
2020/12/19 00:26:38;;;;;;;60.30;33.37;;;;;;;7.02;66.32;100912.97;5097209;28;20377;-78
2020/12/19 00:29:05;;;;;;;51.80;31.00;;;;;;;6.99;66.62;100914.03;5097025;28;20028;-78
2020/12/19 00:31:31;;;;;;;58.45;36.00;;;;;;;6.65;66.08;100860.72;5096922;28;20354;-77
2020/12/19 00:33:56;;;;;;;61.47;37.55;;;;;;;6.91;66.48;100892.81;5096853;28;20028;-77
2020/12/19 00:36:22;;;;;;;62.92;38.22;;;;;;;6.32;66.55;100803.84;5096604;28;20036;-79
2020/12/19 00:38:47;;;;;;;78.53;41.17;;;;;;;6.45;66.28;100821.25;5096745;28;20098;-78
2020/12/19 00:41:17;;;;;;;65.25;40.40;;;;;;;6.61;66.66;100855.81;5096479;28;20024;-78
2020/12/19 00:43:43;;;;;;;57.92;33.50;;;;;;;7.05;66.78;100912.72;5096757;28;20444;-78
2020/12/19 00:46:13;;;;;;;53.80;31.63;;;;;;;6.85;66.27;100869.66;5096611;28;20020;-78
2020/12/19 00:48:39;;;;;;;53.88;30.13;;;;;;;7.10;66.15;100915.81;5078673;28;20164;-78
2020/12/19 00:51:10;;;;;;;52.47;32.00;;;;;;;7.09;66.22;100929.06;5078535;28;20028;-78
2020/12/19 00:53:35;;;;;;;49.13;29.98;;;;;;;6.67;66.26;100850.09;5096591;28;20023;-79
2020/12/19 00:56:01;;;;;;;54.17;33.93;;;;;;;7.05;66.40;100909.25;5095905;28;20027;-78
2020/12/19 00:58:26;;;;;;;64.35;38.42;;;;;;;7.06;66.39;100905.69;5095491;28;20024;-77
2020/12/19 01:00:51;;;;;;;66.13;37.40;;;;;;;6.95;66.61;100893.41;5096447;28;20031;-77
2020/12/19 01:03:17;;;;;;;63.53;36.55;;;;;;;6.62;66.46;100837.34;5096157;28;20073;-78
2020/12/19 01:05:48;;;;;;;59.08;33.35;;;;;;;7.08;66.53;100904.59;5096403;28;20048;-78
2020/12/19 01:08:13;;;;;;;52.33;31.23;;;;;;;6.91;66.31;100866.56;5079246;28;20442;-78
2020/12/19 01:10:38;;;;;;;50.27;28.80;;;;;;;6.65;66.27;100831.00;5095892;28;20075;-77
2020/12/19 01:13:04;;;;;;;49.83;30.52;;;;;;;6.87;66.75;100865.13;5096113;28;20338;-77
2020/12/19 01:15:29;;;;;;;52.83;29.37;;;;;;;6.87;66.48;100862.50;5077385;28;20386;-75
2020/12/19 01:17:54;;;;;;;50.40;31.27;;;;;;;6.73;66.59;100846.19;5096114;28;20342;-77
2020/12/19 01:20:20;;;;;;;53.90;31.05;;;;;;;7.00;66.72;100888.63;5095851;28;20458;-79
2020/12/19 01:22:45;;;;;;;55.10;33.07;;;;;;;6.94;66.48;100865.47;5095924;28;20430;-78
2020/12/19 01:25:11;;;;;;;51.63;31.17;;;;;;;7.00;66.31;100873.69;5095722;28;20028;-77
2020/12/19 01:27:37;;;;;;;51.23;30.27;;;;;;;7.03;66.85;100888.38;5095715;28;20031;-78
2020/12/19 01:30:03;;;;;;;54.07;32.10;;;;;;;6.71;66.25;100822.69;5095779;28;20028;-78
2020/12/19 01:32:28;;;;;;;50.93;30.83;;;;;;;6.74;66.80;100822.44;5095692;28;20027;-78
2020/12/19 01:34:57;;;;;;;52.08;31.30;;;;;;;7.09;66.67;100921.19;5095630;28;20032;-77
2020/12/19 01:37:22;;;;;;;53.07;30.90;;;;;;;6.81;66.56;100865.63;5095578;28;20053;-77
2020/12/19 01:39:47;;;;;;;48.70;30.10;;;;;;;7.11;66.69;100888.59;5095643;28;20023;-78
2020/12/19 01:42:13;;;;;;;46.92;27.98;;;;;;;7.04;66.31;100882.16;5095358;28;20035;-78
2020/12/19 01:44:38;;;;;;;48.17;28.80;;;;;;;7.10;67.09;100891.34;5095498;28;20434;-78
2020/12/19 01:47:10;;;;;;;53.47;31.77;;;;;;;6.83;67.11;100847.13;5077417;28;20108;-78
2020/12/19 01:49:36;;;;;;;44.42;28.98;;;;;;;6.41;66.81;100788.34;5095426;28;20024;-78
2020/12/19 01:52:03;;;;;;;49.92;28.90;;;;;;;7.06;67.05;100895.19;5095491;28;20350;-78
2020/12/19 01:54:29;;;;;;;49.92;29.60;;;;;;;6.48;67.16;100821.84;5095225;28;20434;-79
2020/12/19 01:56:57;;;;;;;51.13;29.80;;;;;;;6.88;66.87;100882.56;5095197;28;20024;-78
2020/12/19 01:59:24;;;;;;;51.58;29.85;;;;;;;6.75;66.96;100852.97;5095112;28;20474;-77
2020/12/19 02:01:51;;;;;;;48.47;28.23;;;;;;;7.05;66.96;100896.13;5095171;28;20144;-78
2020/12/19 02:04:17;;;;;;;47.85;28.65;;;;;;;6.76;67.17;100861.69;5094992;28;20107;-77
2020/12/19 02:06:46;;;;;;;47.30;28.23;;;;;;;7.01;67.24;100885.88;5095122;28;20487;-77
2020/12/19 02:09:13;;;;;;;46.73;27.20;;;;;;;7.11;67.14;100891.22;5094440;28;20343;-75
2020/12/19 02:11:40;;;;;;;47.08;28.45;;;;;;;6.59;66.72;100800.84;5095113;28;20365;-78
2020/12/19 02:14:07;;;;;;;46.92;28.27;;;;;;;7.08;67.01;100888.84;5094977;28;20027;-75
2020/12/19 02:16:34;;;;;;;43.67;26.83;;;;;;;7.07;66.94;100881.91;5094738;28;20418;-77
2020/12/19 02:18:59;;;;;;;47.22;28.42;;;;;;;6.98;67.13;100859.84;5094943;28;20034;-76
2020/12/19 02:21:24;;;;;;;42.70;26.90;;;;;;;7.03;67.24;100866.53;5094830;28;20028;-77
2020/12/19 02:23:50;;;;;;;48.83;26.97;;;;;;;6.45;66.75;100776.66;5094855;28;20430;-77
2020/12/19 02:26:15;;;;;;;44.17;27.00;;;;;;;7.06;66.91;100876.78;5094684;28;20429;-78
2020/12/19 02:28:40;;;;;;;46.25;26.25;;;;;;;7.14;66.91;100884.88;5076858;28;20401;-76
2020/12/19 02:31:06;;;;;;;44.55;26.70;;;;;;;7.03;67.15;100885.75;5094866;28;20077;-77
2020/12/19 02:33:31;;;;;;;45.08;25.98;;;;;;;7.14;67.09;100890.97;5076884;28;20028;-77
2020/12/19 02:35:56;;;;;;;40.22;26.27;;;;;;;7.06;67.08;100872.38;5094760;28;20077;-78
2020/12/19 02:38:22;;;;;;;43.47;25.95;;;;;;;7.14;66.76;100877.00;5094649;28;20073;-77
2020/12/19 02:40:47;;;;;;;43.25;26.13;;;;;;;6.97;66.83;100846.84;5094774;28;20028;-78
2020/12/19 02:43:12;;;;;;;46.25;26.52;;;;;;;7.18;66.97;100875.81;5076658;28;20038;-76
2020/12/19 02:45:38;;;;;;;43.78;25.85;;;;;;;7.23;66.66;100869.22;5076878;28;20024;-77
2020/12/19 02:48:03;;;;;;;53.67;27.43;;;;;;;6.72;66.94;100784.97;5076847;28;20099;-78
2020/12/19 02:50:28;;;;;;;45.28;26.73;;;;;;;6.77;66.74;100806.44;5076616;28;20020;-77
2020/12/19 02:52:54;;;;;;;49.78;27.73;;;;;;;6.80;66.95;100800.94;5076786;28;20024;-77
2020/12/19 02:55:19;;;;;;;51.95;31.40;;;;;;;7.12;66.49;100852.66;5094402;28;20437;-77
2020/12/19 02:57:44;;;;;;;49.20;29.23;;;;;;;7.25;66.54;100869.09;5094494;28;20058;-77
2020/12/19 03:00:10;;;;;;;46.33;27.30;;;;;;;6.82;67.20;100803.44;5076514;28;20034;-78
2020/12/19 03:02:35;;;;;;;47.42;26.90;;;;;;;7.24;66.76;100868.25;5094707;28;20102;-77
2020/12/19 03:05:00;;;;;;;45.22;27.83;;;;;;;7.27;66.65;100868.00;5094424;28;20369;-77
2020/12/19 03:07:27;;;;;;;47.38;27.20;;;;;;;7.30;66.92;100867.78;5076791;28;20055;-77
2020/12/19 03:09:52;;;;;;;45.88;27.25;;;;;;;7.09;66.88;100837.16;5094338;28;20056;-77
2020/12/19 03:12:17;;;;;;;48.53;28.95;;;;;;;7.33;66.61;100869.31;5094459;28;20032;-77
2020/12/19 03:14:43;;;;;;;57.28;30.73;;;;;;;7.32;67.23;100871.09;5076007;28;20119;-76
2020/12/19 03:17:08;;;;;;;51.00;30.40;;;;;;;7.11;66.97;100841.31;5094288;28;20032;-78
2020/12/19 03:19:34;;;;;;;50.35;30.98;;;;;;;7.32;66.96;100883.41;5094276;28;20422;-77
2020/12/19 03:21:59;;;;;;;56.13;31.58;;;;;;;7.05;67.00;100833.94;5098136;28;20024;-76
2020/12/19 03:24:24;;;;;;;56.10;31.52;;;;;;;7.38;66.87;100877.66;5080154;28;20067;-77
2020/12/19 03:26:50;;;;;;;54.63;31.10;;;;;;;6.93;66.90;100799.00;5097907;28;20031;-77
2020/12/19 03:29:15;;;;;;;49.35;29.38;;;;;;;7.22;67.06;100843.91;5097946;28;20434;-78
2020/12/19 03:31:41;;;;;;;57.13;32.47;;;;;;;7.07;66.41;100832.03;5098007;28;20023;-77
2020/12/19 03:34:06;;;;;;;56.22;30.83;;;;;;;7.36;66.83;100876.94;5080133;28;20426;-77
2020/12/19 03:36:32;;;;;;;51.22;29.83;;;;;;;7.34;66.41;100878.84;5097785;28;20086;-76
2020/12/19 03:38:57;;;;;;;57.92;32.15;;;;;;;6.84;67.03;100802.38;5097864;28;20077;-77
2020/12/19 03:41:23;;;;;;;54.40;32.63;;;;;;;7.10;67.35;100858.03;5079755;28;20229;-77
2020/12/19 03:43:48;;;;;;;53.30;31.98;;;;;;;6.88;67.20;100802.97;5097826;28;20426;-77
2020/12/19 03:46:15;;;;;;;49.05;29.58;;;;;;;7.39;66.61;100875.84;5097523;28;20027;-78
2020/12/19 03:48:41;;;;;;;53.08;32.15;;;;;;;7.04;66.76;100808.63;5097851;28;20032;-77
2020/12/19 03:51:07;;;;;;;55.78;30.25;;;;;;;7.36;66.33;100870.84;5097851;28;20024;-77
2020/12/19 03:53:32;;;;;;;51.53;31.75;;;;;;;6.71;66.99;100769.38;5097681;28;20028;-77
2020/12/19 03:55:57;;;;;;;53.38;30.45;;;;;;;7.32;67.35;100872.91;5097707;28;20028;-78
2020/12/19 03:58:23;;;;;;;45.17;26.27;;;;;;;6.89;67.05;100802.84;5097587;28;20027;-77
2020/12/19 04:00:48;;;;;;;42.08;24.95;;;;;;;6.86;67.00;100808.34;5097472;28;20349;-77
2020/12/19 04:03:13;;;;;;;39.40;24.58;;;;;;;7.26;66.61;100862.88;5079481;28;20031;-76
2020/12/19 04:05:39;;;;;;;41.20;23.92;;;;;;;6.82;66.67;100785.91;5079703;28;20107;-77
2020/12/19 04:08:04;;;;;;;39.35;24.60;;;;;;;7.04;66.99;100845.41;5097550;28;20036;-76
2020/12/19 04:10:29;;;;;;;37.75;24.40;;;;;;;7.38;66.77;100869.78;5079190;28;20046;-77
2020/12/19 04:12:55;;;;;;;38.08;23.42;;;;;;;6.95;66.72;100807.59;5079456;28;20074;-77
2020/12/19 04:15:23;;;;;;;37.03;22.30;;;;;;;6.89;67.02;100783.63;5097025;28;20118;-78
2020/12/19 04:17:51;;;;;;;38.80;22.42;;;;;;;7.49;66.47;100877.63;5097135;28;20115;-78
2020/12/19 04:20:17;;;;;;;39.63;24.02;;;;;;;7.23;66.30;100850.84;5097096;28;20085;-77
2020/12/19 04:22:42;;;;;;;37.97;23.70;;;;;;;6.88;66.92;100779.34;5079254;28;20083;-77
2020/12/19 04:25:09;;;;;;;36.97;21.90;;;;;;;7.42;66.38;100871.19;5079137;28;20028;-77
2020/12/19 04:27:36;;;;;;;41.88;25.42;;;;;;;7.23;66.75;100842.94;5096900;28;20434;-77
2020/12/19 04:30:02;;;;;;;37.15;24.38;;;;;;;7.27;66.45;100862.75;5096999;28;20027;-78
2020/12/19 04:32:28;;;;;;;35.35;23.15;;;;;;;7.38;66.44;100869.78;5078546;28;20346;-78
2020/12/19 04:34:53;;;;;;;35.67;22.55;;;;;;;7.47;66.29;100890.06;5096783;28;20111;-79
2020/12/19 04:37:19;;;;;;;35.65;22.63;;;;;;;7.46;66.60;100883.16;5096756;28;20418;-78
2020/12/19 04:39:44;;;;;;;36.53;21.83;;;;;;;7.28;66.72;100864.44;5096930;28;20046;-77
2020/12/19 04:42:10;;;;;;;35.53;21.40;;;;;;;7.17;66.70;100863.63;5096761;28;20035;-78
2020/12/19 04:44:36;;;;;;;37.00;23.70;;;;;;;6.74;66.45;100771.75;5096594;28;20028;-77
2020/12/19 04:47:02;;;;;;;37.08;24.27;;;;;;;6.93;66.90;100806.88;5096618;28;20027;-77
2020/12/19 04:49:28;;;;;;;37.67;22.65;;;;;;;7.10;66.61;100849.31;5096513;28;20032;-78
2020/12/19 04:51:53;;;;;;;37.42;23.77;;;;;;;7.15;66.70;100857.66;5096646;28;20036;-76
2020/12/19 04:54:19;;;;;;;39.78;23.73;;;;;;;7.43;66.48;100903.56;5096415;28;20157;-77
2020/12/19 04:56:45;;;;;;;35.63;23.40;;;;;;;6.87;66.88;100824.91;5096481;28;20039;-77
2020/12/19 04:59:10;;;;;;;34.38;21.85;;;;;;;7.09;66.89;100851.13;5096409;28;20395;-77
2020/12/19 05:01:36;;;;;;;36.00;23.58;;;;;;;6.84;66.80;100812.88;5096184;28;20020;-77
2020/12/19 05:04:01;;;;;;;34.22;22.25;;;;;;;6.98;67.22;100853.78;5096257;28;20111;-77
2020/12/19 05:06:28;;;;;;;32.55;21.02;;;;;;;7.41;67.07;100923.88;5078251;28;20162;-77
2020/12/19 05:08:58;;;;;;;34.22;21.50;;;;;;;7.31;66.72;100887.81;5096028;28;20023;-77
2020/12/19 05:11:25;;;;;;;35.72;24.10;;;;;;;7.32;66.82;100901.78;5096080;28;20036;-77
2020/12/19 05:13:51;;;;;;;37.25;23.10;;;;;;;7.31;67.20;100905.38;5096102;28;20020;-78
2020/12/19 05:16:18;;;;;;;32.15;21.67;;;;;;;7.38;66.88;100917.06;5077391;28;20419;-77
2020/12/19 05:18:44;;;;;;;35.55;23.27;;;;;;;7.01;67.32;100854.38;5095995;28;20395;-78
2020/12/19 05:21:11;;;;;;;42.15;23.48;;;;;;;7.37;66.98;100911.94;5096032;28;20426;-77
2020/12/19 05:23:38;;;;;;;37.25;24.35;;;;;;;7.30;67.32;100904.53;5095898;28;20115;-77
2020/12/19 05:26:05;;;;;;;36.65;24.83;;;;;;;7.39;66.81;100921.34;5095898;28;20020;-78
2020/12/19 05:28:35;;;;;;;38.33;24.50;;;;;;;7.42;66.95;100926.38;5095733;28;20035;-77
2020/12/19 05:31:01;;;;;;;35.23;23.47;;;;;;;7.45;67.38;100925.31;5077977;28;20038;-76
2020/12/19 05:33:32;;;;;;;37.78;25.05;;;;;;;7.45;67.16;100928.78;5077586;28;20024;-76
2020/12/19 05:35:58;;;;;;;37.97;24.10;;;;;;;7.39;66.52;100920.53;5095706;28;20089;-77
2020/12/19 05:38:27;;;;;;;38.42;23.73;;;;;;;7.49;66.46;100940.72;5095688;28;20032;-76
2020/12/19 05:40:52;;;;;;;40.40;25.73;;;;;;;7.25;67.14;100900.63;5077543;28;20039;-78
2020/12/19 05:43:18;;;;;;;40.05;26.27;;;;;;;7.37;66.58;100941.66;5094900;28;20024;-78
2020/12/19 05:45:43;;;;;;;39.10;24.17;;;;;;;7.44;67.04;100940.25;5095497;28;20482;-77
2020/12/19 05:48:08;;;;;;;42.20;23.90;;;;;;;7.17;66.78;100911.75;5095443;28;20038;-78
2020/12/19 05:50:34;;;;;;;37.00;22.73;;;;;;;7.11;66.83;100920.13;5077460;28;20031;-77
2020/12/19 05:53:02;;;;;;;39.78;23.40;;;;;;;7.31;67.43;100948.25;5077447;28;20034;-77
2020/12/19 05:55:27;;;;;;;40.33;25.05;;;;;;;7.21;67.20;100943.84;5095156;28;20031;-76
2020/12/19 05:57:53;;;;;;;35.95;23.65;;;;;;;6.73;67.13;100873.25;5095455;28;20028;-77
2020/12/19 06:00:19;;;;;;;40.20;25.08;;;;;;;7.29;67.26;100959.84;5095210;28;20024;-77
2020/12/19 06:02:45;;;;;;;39.35;24.83;;;;;;;7.20;67.56;100950.06;5095236;28;20063;-77
2020/12/19 06:05:12;;;;;;;47.38;26.98;;;;;;;7.04;67.02;100923.34;5095185;28;20023;-75
2020/12/19 06:07:44;;;;;;;41.38;24.55;;;;;;;7.28;66.85;100968.69;5077067;28;20028;-77
2020/12/19 06:10:13;;;;;;;48.53;26.85;;;;;;;6.65;67.19;100870.38;5095022;28;20055;-77
2020/12/19 06:12:53;;;;;;;42.08;26.25;;;;;;;7.27;67.05;100972.25;5095120;28;20028;-77
2020/12/19 06:15:50;;;;;;;45.15;27.25;;;;;;;7.11;66.90;100956.88;5076809;28;20438;-77
2020/12/19 06:18:24;;;;;;;42.20;26.38;;;;;;;6.95;66.85;100927.53;5094999;28;20028;-76
2020/12/19 06:20:50;;;;;;;45.95;28.25;;;;;;;7.33;67.14;100979.66;5095006;28;20028;-77
2020/12/19 06:23:16;;;;;;;52.08;29.58;;;;;;;7.12;66.90;100953.28;5077102;28;20035;-77
2020/12/19 06:25:44;;;;;;;48.43;29.93;;;;;;;6.79;67.00;100900.81;5094981;28;20028;-76
2020/12/19 06:28:11;;;;;;;46.35;28.35;;;;;;;7.17;67.05;100955.56;5076998;28;20023;-76
2020/12/19 06:30:37;;;;;;;47.67;30.38;;;;;;;6.50;66.74;100840.09;5094793;28;20117;-76
2020/12/19 06:33:14;;;;;;;44.95;26.73;;;;;;;7.36;66.94;100984.66;5094814;28;20051;-76
2020/12/19 06:35:50;;;;;;;44.80;27.45;;;;;;;7.18;66.51;100965.09;5094967;28;20028;-76
2020/12/19 06:38:39;;;;;;;44.72;26.65;;;;;;;7.37;67.03;100988.97;5094705;28;20028;-77
2020/12/19 06:41:05;;;;;;;48.25;28.75;;;;;;;7.32;66.37;100977.97;5065146;28;20492;-75
2020/12/19 06:43:30;;;;;;;45.10;28.02;;;;;;;6.94;66.90;100918.00;5089843;28;20020;-78
2020/12/19 06:45:55;;;;;;;44.20;26.88;;;;;;;7.39;67.02;100992.31;5094707;28;20028;-76
2020/12/19 06:48:32;;;;;;;47.85;28.02;;;;;;;7.40;66.46;100988.72;5094600;28;20024;-76
2020/12/19 06:51:02;;;;;;;46.63;28.45;;;;;;;7.40;66.58;100993.97;5094701;28;20103;-77
2020/12/19 06:53:29;;;;;;;43.88;26.60;;;;;;;6.60;66.54;100851.53;5094490;28;20031;-76
2020/12/19 06:55:55;;;;;;;42.40;26.67;;;;;;;7.46;66.20;100988.25;5080499;28;20025;-77
2020/12/19 06:58:32;;;;;;;48.80;28.50;;;;;;;7.48;66.19;100988.13;5098682;28;20054;-75
2020/12/19 07:00:58;;;;;;;43.67;28.33;;;;;;;7.09;65.95;100936.94;5098537;28;20024;-77
2020/12/19 07:03:44;;;;;;;45.10;28.00;;;;;;;7.51;65.96;100996.63;5098335;28;20031;-77
2020/12/19 07:06:18;;;;;;;45.00;28.58;;;;;;;7.07;66.64;100923.09;5098121;28;20060;-78
2020/12/19 07:08:43;;;;;;;48.90;29.48;;;;;;;7.44;65.93;100970.94;5098794;28;20074;-77
2020/12/19 07:11:33;;;;;;;49.40;30.80;;;;;;;7.54;66.09;100987.66;5080477;28;20399;-77
2020/12/19 07:14:00;;;;;;;48.15;27.45;;;;;;;7.21;66.34;100943.84;5098338;28;20024;-78
2020/12/19 07:16:44;;;;;;;48.53;28.23;;;;;;;7.57;66.64;100995.28;5097846;28;20036;-79
2020/12/19 07:19:17;;;;;;;47.45;29.17;;;;;;;7.52;66.10;101000.91;5098321;28;20088;-78
2020/12/19 07:21:43;;;;;;;52.83;29.85;;;;;;;7.02;66.37;100902.47;5080389;28;20031;-79
2020/12/19 07:24:09;;;;;;;51.30;30.60;;;;;;;7.12;65.99;100915.69;5098300;28;20027;-78
2020/12/19 07:26:34;;;;;;;49.28;30.13;;;;;;;7.69;66.11;100983.78;5098120;28;20391;-77
2020/12/19 07:29:00;;;;;;;50.20;30.90;;;;;;;7.15;65.61;100908.41;5098125;28;20054;-77
2020/12/19 07:31:25;;;;;;;51.95;31.55;;;;;;;7.71;65.86;101002.91;5098105;28;20027;-78
2020/12/19 07:33:50;;;;;;;54.47;32.05;;;;;;;7.72;65.76;100994.03;5098263;28;20449;-77
2020/12/19 07:36:18;;;;;;;48.85;30.30;;;;;;;7.76;65.50;100995.47;5097928;28;20020;-78
2020/12/19 07:38:43;;;;;;;53.40;32.13;;;;;;;7.71;66.16;100975.78;5098006;28;20414;-80
2020/12/19 07:41:09;;;;;;;55.88;31.23;;;;;;;7.65;65.80;100958.69;5079938;28;20024;-78
2020/12/19 07:43:34;;;;;;;47.90;29.48;;;;;;;7.85;65.66;100997.34;5097772;28;20035;-79
2020/12/19 07:46:00;;;;;;;51.47;31.33;;;;;;;6.65;65.36;100791.66;5097804;28;20419;-77
2020/12/19 07:48:26;;;;;;;48.55;29.58;;;;;;;7.89;65.31;100992.66;5097655;28;20035;-78
2020/12/19 07:50:51;;;;;;;46.55;27.20;;;;;;;7.85;65.11;100992.09;5097849;28;20024;-78
2020/12/19 07:53:16;;;;;;;47.60;28.75;;;;;;;7.68;64.98;100958.44;5079699;28;20024;-78
2020/12/19 07:55:49;;;;;;;47.22;29.25;;;;;;;7.75;65.08;100970.13;5097726;28;20085;-78
2020/12/19 07:58:16;;;;;;;50.15;29.63;;;;;;;7.69;65.82;100960.13;5097558;28;20059;-79
2020/12/19 08:00:41;;;;;;;43.78;27.38;;;;;;;7.39;65.47;100915.28;5079642;28;20031;-79
2020/12/19 08:03:10;;;;;;;44.72;27.63;;;;;;;7.76;65.67;100990.22;5079549;28;20380;-78
2020/12/19 08:05:36;;;;;;;46.08;28.92;;;;;;;6.79;65.23;100832.56;5078862;28;20024;-83
2020/12/19 08:08:01;;;;;;;41.70;24.98;;;;;;;7.70;65.32;100974.94;5079549;28;20115;-78
2020/12/19 08:10:26;;;;;;;39.60;24.70;;;;;;;7.43;65.32;100935.94;5078485;28;20048;-79
2020/12/19 08:12:52;;;;;;;42.00;27.45;;;;;;;7.43;65.56;100929.81;5097348;28;20435;-78
2020/12/19 08:15:20;;;;;;;45.22;27.35;;;;;;;7.74;65.52;100992.13;5097126;28;20438;-78
2020/12/19 08:17:48;;;;;;;47.30;27.13;;;;;;;7.86;65.38;100990.28;5079248;28;20023;-79
2020/12/19 08:20:16;;;;;;;42.70;26.40;;;;;;;7.22;65.57;100888.56;5097131;28;20106;-77
2020/12/19 08:22:42;;;;;;;52.33;31.27;;;;;;;7.53;65.38;100936.88;5079023;28;20066;-78
2020/12/19 08:25:10;;;;;;;45.10;27.38;;;;;;;7.73;65.47;100969.44;5097153;28;20027;-78
2020/12/19 08:27:35;;;;;;;42.65;27.38;;;;;;;7.94;65.70;100993.97;5096789;28;20437;-78
2020/12/19 08:30:03;;;;;;;45.30;27.23;;;;;;;7.98;65.58;100991.91;5096911;28;20031;-76
2020/12/19 08:32:30;;;;;;;46.60;28.98;;;;;;;7.51;64.90;100904.63;5078924;28;20024;-78
2020/12/19 08:34:56;;;;;;;48.92;30.27;;;;;;;7.87;64.90;100955.16;5096685;28;20441;-78
2020/12/19 08:37:21;;;;;;;47.08;29.13;;;;;;;7.31;65.24;100864.19;5096778;28;20028;-78
2020/12/19 08:40:07;;;;;;;49.50;30.00;;;;;;;8.04;64.93;100987.94;5096736;28;20338;-78
2020/12/19 08:42:33;;;;;;;47.40;27.88;;;;;;;8.01;64.80;100981.16;5096701;28;20418;-78
2020/12/19 08:45:21;;;;;;;47.53;28.80;;;;;;;7.98;65.48;100982.22;5096645;28;20094;-77
2020/12/19 08:47:49;;;;;;;48.53;28.80;;;;;;;7.93;65.09;100979.16;5096653;28;20032;-78
2020/12/19 08:50:15;;;;;;;49.72;32.03;;;;;;;7.51;65.03;100885.41;5096564;28;20032;-79
2020/12/19 08:52:40;;;;;;;53.10;32.72;;;;;;;8.07;65.02;100978.00;5078301;28;20335;-78
2020/12/19 08:55:05;;;;;;;57.97;32.65;;;;;;;8.09;65.20;100970.81;5078257;28;20119;-76
2020/12/19 08:57:31;;;;;;;52.20;31.70;;;;;;;7.86;65.17;100935.91;5096653;28;20032;-77
2020/12/19 09:00:11;;;;;;;57.35;34.40;;;;;;;8.14;64.54;100970.44;5078524;28;20031;-78
2020/12/19 09:02:38;;;;;;;61.35;33.50;;;;;;;8.15;64.80;100970.31;5096196;28;20113;-77
2020/12/19 09:05:05;;;;;;;51.00;29.92;;;;;;;7.92;64.90;100918.78;5096286;28;20422;-78
2020/12/19 09:07:30;;;;;;;57.20;33.30;;;;;;;8.12;64.98;100946.91;5096049;28;20028;-77
2020/12/19 09:09:55;;;;;;;49.88;30.25;;;;;;;7.60;64.35;100882.00;5077970;28;20058;-78
2020/12/19 09:12:22;;;;;;;50.63;30.45;;;;;;;8.16;64.43;100952.75;5096062;28;20023;-78
2020/12/19 09:14:48;;;;;;;49.83;28.52;;;;;;;8.14;64.68;100958.13;5096170;28;20028;-79
2020/12/19 09:17:30;;;;;;;59.65;33.42;;;;;;;7.92;65.02;100942.47;5095654;28;20027;-77
2020/12/19 09:20:00;;;;;;;48.03;28.10;;;;;;;7.49;64.75;100846.09;5095968;28;20097;-78
2020/12/19 09:22:25;;;;;;;43.33;26.58;;;;;;;8.17;64.48;100952.59;5095781;28;20039;-76
2020/12/19 09:24:50;;;;;;;46.20;30.20;;;;;;;8.18;64.77;100946.41;5095996;28;20020;-78
2020/12/19 09:27:16;;;;;;;57.47;33.97;;;;;;;7.80;64.32;100885.63;5095963;28;20020;-78
2020/12/19 09:29:41;;;;;;;48.15;29.95;;;;;;;7.73;64.47;100872.16;5095793;28;20074;-78
2020/12/19 09:32:06;;;;;;;51.40;30.20;;;;;;;7.75;64.72;100867.59;5093342;28;20407;-77
2020/12/19 09:34:32;;;;;;;44.70;27.38;;;;;;;7.70;64.27;100846.13;5094218;28;20032;-78
2020/12/19 09:36:57;;;;;;;41.05;25.35;;;;;;;8.22;63.99;100936.47;5095645;28;20081;-76
2020/12/19 09:39:22;;;;;;;41.65;25.98;;;;;;;7.52;64.40;100803.81;5077551;28;20057;-77
2020/12/19 09:41:48;;;;;;;47.70;29.40;;;;;;;8.34;64.39;100922.31;5077797;28;20066;-78
2020/12/19 09:44:13;;;;;;;41.67;25.77;;;;;;;8.23;64.55;100906.56;5095621;28;20031;-78
2020/12/19 09:46:38;;;;;;;46.45;29.73;;;;;;;8.05;64.28;100861.56;5095413;28;20024;-77
2020/12/19 09:49:04;;;;;;;46.17;31.02;;;;;;;8.02;63.76;100858.38;5077719;28;20547;-79
2020/12/19 09:51:30;;;;;;;52.42;32.92;;;;;;;8.02;64.15;100848.69;5095421;28;20032;-78
2020/12/19 09:53:55;;;;;;;52.65;32.10;;;;;;;8.12;63.80;100862.72;5077379;28;20043;-76
2020/12/19 09:56:21;;;;;;;57.10;33.42;;;;;;;8.48;63.77;100923.75;5095213;28;20024;-77
2020/12/19 09:58:46;;;;;;;47.88;30.35;;;;;;;8.47;64.19;100928.19;5087536;23;20120;-77
2020/12/19 10:01:13;;;;;;;46.03;26.30;;;;;;;8.50;63.81;100919.22;5055100;28;20032;-79
2020/12/19 10:03:38;;;;;;;44.83;28.05;;;;;;;8.12;63.82;100843.47;5054666;28;20032;-77
2020/12/19 10:06:03;;;;;;;41.35;25.30;;;;;;;8.25;63.76;100867.81;5074886;28;20020;-78
2020/12/19 10:08:29;;;;;;;43.97;26.08;;;;;;;8.57;63.96;100920.34;5073755;28;20024;-77
2020/12/19 10:10:57;;;;;;;42.70;26.13;;;;;;;8.24;63.42;100858.25;5075262;28;20056;-77
2020/12/19 10:13:22;;;;;;;41.08;25.13;;;;;;;8.00;63.45;100832.19;5074894;28;20449;-77
2020/12/19 10:15:48;;;;;;;44.58;27.73;;;;;;;8.52;64.16;100907.56;5074866;28;20017;-77
2020/12/19 10:18:13;;;;;;;44.42;29.45;;;;;;;8.47;63.67;100895.78;5073747;28;20391;-77
2020/12/19 10:20:38;;;;;;;41.97;26.27;;;;;;;8.23;63.50;100856.56;5073407;28;20020;-78
2020/12/19 10:23:04;;;;;;;44.10;26.95;;;;;;;8.55;63.93;100901.22;5074506;28;20029;-76
2020/12/19 10:25:29;;;;;;;44.42;27.52;;;;;;;8.55;63.39;100898.59;5074596;28;20104;-77
2020/12/19 10:27:55;;;;;;;49.78;28.27;;;;;;;8.58;63.68;100900.97;5074714;28;20473;-77
2020/12/19 10:30:20;;;;;;;46.17;27.65;;;;;;;8.49;63.78;100880.69;5074252;28;20381;-78
2020/12/19 10:32:46;;;;;;;50.72;31.55;;;;;;;8.13;63.61;100824.09;5073573;28;20020;-79
2020/12/19 10:35:11;;;;;;;42.03;26.23;;;;;;;7.84;63.36;100776.59;5073514;28;20112;-79
2020/12/19 10:37:37;;;;;;;44.28;27.70;;;;;;;8.22;63.63;100829.44;5074503;28;20092;-80
2020/12/19 10:40:05;;;;;;;52.30;30.80;;;;;;;7.59;63.69;100722.66;5074480;28;20492;-80
2020/12/19 10:42:31;;;;;;;52.90;32.03;;;;;;;8.38;63.50;100850.03;5074454;28;20454;-79
2020/12/19 10:44:56;;;;;;;61.17;36.70;;;;;;;7.73;63.78;100750.41;5074539;28;20021;-78
2020/12/19 10:47:22;;;;;;;54.65;34.72;;;;;;;8.54;63.33;100879.31;5074402;28;20041;-78
2020/12/19 10:49:47;;;;;;;54.22;30.85;;;;;;;8.27;63.69;100829.03;5074546;28;20062;-77
2020/12/19 10:52:12;;;;;;;52.28;30.75;;;;;;;7.90;63.38;100769.03;5073519;28;20044;-77
2020/12/19 10:54:38;;;;;;;47.33;28.65;;;;;;;8.56;63.74;100876.56;5074208;28;20066;-78
2020/12/19 10:57:03;;;;;;;40.72;26.65;;;;;;;8.49;63.28;100852.56;5074548;28;20020;-78
2020/12/19 10:59:29;;;;;;;47.22;28.42;;;;;;;8.40;63.40;100837.56;5073140;28;20045;-77
2020/12/19 11:01:55;;;;;;;51.53;32.10;;;;;;;8.61;63.50;100863.84;5073605;28;20021;-77
2020/12/19 11:04:21;;;;;;;46.42;29.05;;;;;;;8.60;63.26;100867.44;5074237;28;20021;-78
2020/12/19 11:06:47;;;;;;;45.70;29.02;;;;;;;8.53;63.08;100843.44;5074316;28;20021;-77
2020/12/19 11:09:13;;;;;;;50.00;30.27;;;;;;;8.64;62.96;100865.38;5074333;28;20021;-79
2020/12/19 11:11:38;;;;;;;50.08;30.23;;;;;;;8.46;62.73;100831.78;5073094;28;20025;-77
2020/12/19 11:14:04;;;;;;;49.15;29.88;;;;;;;8.34;63.21;100801.25;5074246;28;20354;-77
2020/12/19 11:16:30;;;;;;;53.97;31.35;;;;;;;8.59;63.28;100866.59;5074093;28;20025;-76